createdAt,value
2018-01-04T00:01:46.880Z,99.90
2018-01-04T00:04:15.125Z,99.90
2018-01-04T00:06:43.403Z,99.90
2018-01-04T00:09:11.785Z,99.90
2018-01-04T00:11:40.011Z,99.90
2018-01-04T00:14:08.303Z,99.90
2018-01-04T00:16:36.601Z,99.90
2018-01-04T00:19:04.871Z,99.90
2018-01-04T00:21:33.316Z,99.90
2018-01-04T00:24:02.337Z,99.90
2018-01-04T00:26:30.650Z,99.90
2018-01-04T00:28:58.909Z,99.90
2018-01-04T00:31:27.173Z,99.90
2018-01-04T00:33:55.475Z,99.90
2018-01-04T00:36:23.730Z,99.90
2018-01-04T00:38:51.966Z,99.90
2018-01-04T00:41:20.227Z,99.90
2018-01-04T00:43:48.479Z,99.90
2018-01-04T00:46:16.767Z,99.90
2018-01-04T00:48:45.025Z,99.90
2018-01-04T00:51:14.069Z,99.90
2018-01-04T00:53:42.346Z,99.90
2018-01-04T00:56:10.590Z,99.90
2018-01-04T00:58:39.613Z,99.90
2018-01-04T01:01:07.870Z,99.90
2018-01-04T01:03:36.889Z,99.90
2018-01-04T01:06:05.203Z,99.90
2018-01-04T01:08:33.556Z,99.90
2018-01-04T01:11:01.793Z,99.90
2018-01-04T01:13:30.053Z,99.90
2018-01-04T01:15:58.302Z,99.90
2018-01-04T01:18:26.590Z,99.90
2018-01-04T01:20:55.042Z,99.90
2018-01-04T01:23:23.305Z,99.90
2018-01-04T01:25:52.312Z,99.90
2018-01-04T01:28:21.342Z,99.90
2018-01-04T01:30:49.630Z,99.90
2018-01-04T01:33:17.889Z,99.90
2018-01-04T01:35:46.490Z,99.90
2018-01-04T01:38:14.753Z,99.90
2018-01-04T01:40:43.046Z,99.90
2018-01-04T01:43:11.334Z,99.90
2018-01-04T01:45:39.614Z,99.90
2018-01-04T01:48:08.246Z,99.90
2018-01-04T01:50:36.521Z,99.90
2018-01-04T01:53:04.769Z,99.90
2018-01-04T01:55:33.057Z,99.90
2018-01-04T01:58:01.282Z,99.90
2018-01-04T02:00:30.344Z,99.90
2018-01-04T02:02:58.590Z,99.90
2018-01-04T02:05:26.853Z,99.90
2018-01-04T02:07:55.876Z,99.90
2018-01-04T02:10:24.722Z,99.90
2018-01-04T02:12:52.957Z,99.90
2018-01-04T02:15:21.246Z,99.90
2018-01-04T02:17:49.566Z,99.90
2018-01-04T02:23:35.649Z,99.90
2018-01-04T02:26:03.922Z,99.90
2018-01-04T02:28:44.125Z,99.90
2018-01-04T02:34:36.790Z,99.90
2018-01-04T02:37:16.856Z,99.90
2018-01-04T02:39:56.778Z,99.90
2018-01-04T02:42:37.572Z,99.90
2018-01-04T02:48:04.283Z,99.90
2018-01-04T02:50:32.304Z,99.90
2018-01-04T02:53:00.298Z,99.90
2018-01-04T02:55:28.317Z,99.90
2018-01-04T02:57:57.834Z,99.90
2018-01-04T03:00:26.646Z,99.90
2018-01-04T03:02:54.657Z,99.90
2018-01-04T03:05:22.672Z,99.90
2018-01-04T03:07:50.691Z,99.90
2018-01-04T03:10:18.746Z,99.90
2018-01-04T03:12:46.753Z,99.90
2018-01-04T03:15:14.795Z,99.90
2018-01-04T03:17:42.860Z,99.90
2018-01-04T03:20:11.638Z,99.90
2018-01-04T03:22:45.378Z,99.90
2018-01-04T03:25:19.151Z,99.90
2018-01-04T03:27:52.999Z,99.90
2018-01-04T03:30:27.459Z,99.90
2018-01-04T03:33:01.107Z,99.90
2018-01-04T03:35:34.814Z,99.90
2018-01-04T03:38:08.455Z,99.90
2018-01-04T03:40:42.142Z,99.90
2018-01-04T03:43:16.625Z,99.90
2018-01-04T03:45:50.235Z,99.90
2018-01-04T03:48:24.087Z,99.90
2018-01-04T03:50:58.529Z,99.90
2018-01-04T03:53:32.310Z,99.90
2018-01-04T03:56:05.981Z,99.90
2018-01-04T03:58:39.694Z,99.90
2018-01-04T04:01:13.439Z,99.90
2018-01-04T04:03:41.673Z,99.90
2018-01-04T04:06:15.258Z,99.90
2018-01-04T04:08:44.382Z,99.90
2018-01-04T04:11:12.419Z,99.90
2018-01-04T04:13:40.443Z,99.90
2018-01-04T04:16:08.461Z,99.90
2018-01-04T04:18:36.507Z,99.90
2018-01-04T04:21:04.513Z,99.90
2018-01-04T04:23:33.295Z,99.90
2018-01-04T04:26:01.402Z,99.90
2018-01-04T04:28:29.464Z,99.90
2018-01-04T04:30:58.225Z,99.90
2018-01-04T04:33:26.326Z,99.90
2018-01-04T04:35:55.094Z,99.90
2018-01-04T04:38:23.141Z,99.90
2018-01-04T04:40:51.158Z,99.90
2018-01-04T04:43:19.253Z,99.90
2018-01-04T04:45:48.057Z,99.90
2018-01-04T04:48:16.085Z,99.90
2018-01-04T04:50:44.206Z,99.90
2018-01-04T04:53:12.226Z,99.90
2018-01-04T04:55:40.233Z,99.90
2018-01-04T04:58:08.272Z,99.90
2018-01-04T05:00:36.270Z,99.90
2018-01-04T05:03:05.089Z,99.90
2018-01-04T05:05:33.884Z,99.90
2018-01-04T05:08:02.649Z,99.90
2018-01-04T05:10:30.751Z,99.90
2018-01-04T05:12:59.518Z,99.90
2018-01-04T05:15:29.141Z,99.90
2018-01-04T05:17:57.910Z,99.90
2018-01-04T05:20:26.034Z,99.90
2018-01-04T05:22:54.096Z,99.90
2018-01-04T05:25:22.877Z,99.90
2018-01-04T05:27:51.658Z,99.90
2018-01-04T05:30:19.748Z,99.90
2018-01-04T05:32:48.763Z,99.90
2018-01-04T05:35:16.830Z,99.90
2018-01-04T05:37:45.629Z,99.90
2018-01-04T05:40:14.478Z,99.90
2018-01-04T05:42:42.482Z,99.90
2018-01-04T05:45:11.270Z,99.90
2018-01-04T05:47:39.286Z,99.90
2018-01-04T05:50:07.303Z,99.90
2018-01-04T05:52:35.312Z,99.90
2018-01-04T05:55:04.093Z,99.90
2018-01-04T05:57:32.907Z,99.90
2018-01-04T06:00:01.696Z,99.90
2018-01-04T06:02:30.472Z,99.90
2018-01-04T06:04:59.275Z,99.90
2018-01-04T06:07:28.050Z,99.90
2018-01-04T06:09:56.847Z,99.90
2018-01-04T06:12:25.638Z,99.90
2018-01-04T06:14:53.647Z,99.90
2018-01-04T06:17:21.676Z,99.90
2018-01-04T06:19:49.790Z,99.90
2018-01-04T06:22:18.566Z,99.90
2018-01-04T06:24:48.971Z,99.90
2018-01-04T06:27:17.080Z,99.90
2018-01-04T06:29:45.883Z,99.90
2018-01-04T06:32:13.959Z,99.90
2018-01-04T06:34:42.026Z,99.90
2018-01-04T06:37:10.814Z,99.90
2018-01-04T06:39:39.609Z,99.90
2018-01-04T06:42:07.627Z,99.90
2018-01-04T06:44:35.634Z,99.90
2018-01-04T06:47:03.768Z,99.90
2018-01-04T06:49:31.802Z,99.90
2018-01-04T06:52:00.614Z,99.90
2018-01-04T06:54:29.433Z,99.90
2018-01-04T06:56:57.507Z,99.90
2018-01-04T06:59:25.546Z,99.90
2018-01-04T07:01:54.580Z,99.90
2018-01-04T07:04:22.559Z,99.90
2018-01-04T07:06:50.598Z,99.90
2018-01-04T07:09:18.608Z,99.90
2018-01-04T07:11:46.642Z,99.90
2018-01-04T07:14:15.431Z,99.90
2018-01-04T07:16:44.209Z,99.90
2018-01-04T07:19:12.994Z,99.90
2018-01-04T07:21:41.095Z,99.90
2018-01-04T07:24:09.913Z,99.90
2018-01-04T07:26:37.986Z,99.90
2018-01-04T07:29:06.752Z,99.90
2018-01-04T07:31:35.522Z,99.90
2018-01-04T07:34:03.631Z,99.90
2018-01-04T07:36:32.402Z,99.90
2018-01-04T07:39:01.194Z,99.90
2018-01-04T07:41:29.490Z,99.90
2018-01-04T07:43:57.754Z,99.90
2018-01-04T07:46:26.021Z,99.90
2018-01-04T07:48:55.047Z,99.90
2018-01-04T07:51:23.337Z,99.90
2018-01-04T07:53:51.615Z,99.90
2018-01-04T07:56:19.870Z,99.90
2018-01-04T07:58:48.158Z,99.90
2018-01-04T08:01:16.430Z,99.90
2018-01-04T08:03:44.841Z,99.90
2018-01-04T08:06:13.346Z,99.90
2018-01-04T08:08:41.712Z,99.90
2018-01-04T08:11:10.174Z,99.90
2018-01-04T08:13:38.440Z,99.90
2018-01-04T08:16:07.470Z,99.90
2018-01-04T08:18:35.726Z,99.90
2018-01-04T08:21:04.035Z,99.90
2018-01-04T08:23:32.364Z,99.90
2018-01-04T08:26:00.707Z,99.90
2018-01-04T08:28:28.954Z,99.90
2018-01-04T08:30:57.610Z,99.90
2018-01-04T08:33:25.830Z,99.90
2018-01-04T08:35:54.124Z,99.90
2018-01-04T08:38:22.370Z,99.90
2018-01-04T08:40:51.390Z,99.90
2018-01-04T08:43:19.658Z,99.90
2018-01-04T08:45:48.704Z,99.90
2018-01-04T08:48:16.935Z,99.90
2018-01-04T08:50:45.993Z,99.90
2018-01-04T08:53:14.806Z,99.90
2018-01-04T08:55:43.063Z,99.90
2018-01-04T08:58:11.305Z,99.90
2018-01-04T09:00:39.570Z,99.90
2018-01-04T09:03:08.619Z,99.90
2018-01-04T09:05:36.880Z,99.90
2018-01-04T09:08:05.122Z,99.90
2018-01-04T09:10:34.163Z,99.90
2018-01-04T09:13:02.456Z,99.90
2018-01-04T09:15:30.705Z,99.90
2018-01-04T09:17:58.955Z,99.90
2018-01-04T09:20:27.211Z,99.90
2018-01-04T09:22:55.471Z,99.90
2018-01-04T09:25:23.722Z,99.90
2018-01-04T09:27:52.026Z,99.90
2018-01-04T09:30:20.290Z,99.90
2018-01-04T09:32:48.586Z,99.90
2018-01-04T09:35:16.825Z,99.90
2018-01-04T09:37:45.848Z,99.90
2018-01-04T09:40:14.087Z,99.90
2018-01-04T09:42:42.357Z,99.90
2018-01-04T09:45:10.601Z,99.90
2018-01-04T09:47:38.842Z,99.90
2018-01-04T09:50:07.854Z,99.90
2018-01-04T09:52:36.874Z,99.90
2018-01-04T09:55:05.175Z,99.90
2018-01-04T09:57:33.446Z,99.90
2018-01-04T10:00:01.723Z,99.90
2018-01-04T10:02:29.978Z,99.90
2018-01-04T10:04:59.011Z,99.90
2018-01-04T10:07:27.275Z,99.90
2018-01-04T10:09:55.726Z,99.90
2018-01-04T10:12:24.059Z,99.90
2018-01-04T10:14:52.298Z,99.90
2018-01-04T10:17:21.371Z,99.90
2018-01-04T10:19:49.626Z,99.90
2018-01-04T10:22:17.898Z,99.90
2018-01-04T10:24:46.139Z,99.90
2018-01-04T10:27:15.174Z,99.90
2018-01-04T10:29:44.209Z,99.90
2018-01-04T10:32:12.464Z,99.90
2018-01-04T10:34:40.729Z,99.90
2018-01-04T10:37:09.002Z,99.90
2018-01-04T10:39:37.273Z,99.90
2018-01-04T10:42:05.625Z,99.90
2018-01-04T10:44:33.879Z,99.90
2018-01-04T10:47:02.102Z,99.90
2018-01-04T10:49:31.120Z,99.90
2018-01-04T10:51:59.359Z,99.90
2018-01-04T10:54:27.936Z,99.90
2018-01-04T10:56:56.349Z,99.90
2018-01-04T10:59:25.008Z,99.90
2018-01-04T11:01:54.359Z,99.90
2018-01-04T11:04:23.002Z,99.90
2018-01-04T11:06:52.513Z,99.90
2018-01-04T11:09:21.138Z,99.90
2018-01-04T11:11:50.301Z,99.90
2018-01-04T11:14:19.535Z,99.90
2018-01-04T11:16:48.090Z,99.90
2018-01-04T11:19:17.160Z,99.90
2018-01-04T11:21:45.440Z,99.90
2018-01-04T11:24:13.708Z,99.90
2018-01-04T11:26:41.953Z,99.90
2018-01-04T11:29:10.219Z,99.90
2018-01-04T11:31:38.466Z,99.90
2018-01-04T11:34:06.730Z,99.90
2018-01-04T11:36:34.992Z,99.90
2018-01-04T11:39:04.018Z,99.90
2018-01-04T11:41:32.593Z,99.90
2018-01-04T11:44:01.772Z,99.90
2018-01-04T11:46:30.259Z,99.90
2018-01-04T11:48:59.539Z,99.90
2018-01-04T11:51:28.885Z,99.90
2018-01-04T11:53:57.890Z,99.90
2018-01-04T11:56:26.198Z,99.90
2018-01-04T11:58:54.465Z,99.90
2018-01-04T12:01:22.750Z,99.90
2018-01-04T12:03:51.004Z,99.90
2018-01-04T12:06:19.283Z,99.90
2018-01-04T12:08:47.632Z,99.90
2018-01-04T12:11:15.881Z,99.90
2018-01-04T12:13:44.122Z,99.90
2018-01-04T12:16:12.393Z,99.90
2018-01-04T12:18:41.399Z,99.90
2018-01-04T12:21:10.409Z,99.90
2018-01-04T12:23:39.433Z,99.90
2018-01-04T12:26:07.706Z,99.90
2018-01-04T12:28:35.945Z,99.90
2018-01-04T12:31:04.276Z,99.90
2018-01-04T12:33:32.519Z,99.90
2018-01-04T12:36:01.539Z,99.90
2018-01-04T12:38:29.835Z,99.90
2018-01-04T12:40:58.120Z,99.90
2018-01-04T12:43:27.125Z,99.90
2018-01-04T12:45:55.429Z,99.90
2018-01-04T12:48:23.642Z,99.90
2018-01-04T12:50:52.706Z,99.90
2018-01-04T12:53:20.922Z,99.90
2018-01-04T12:55:49.965Z,99.90
2018-01-04T12:58:18.724Z,99.90
2018-01-04T13:00:47.005Z,99.90
2018-01-04T13:03:15.215Z,99.90
2018-01-04T13:05:43.459Z,99.90
2018-01-04T13:08:11.709Z,99.90
2018-01-04T13:10:39.954Z,99.90
2018-01-04T13:13:08.847Z,99.90
2018-01-04T13:15:37.080Z,99.90
2018-01-04T13:18:06.122Z,99.90
2018-01-04T13:20:34.392Z,99.90
2018-01-04T13:23:02.654Z,99.90
2018-01-04T13:25:30.946Z,99.90
2018-01-04T13:27:59.273Z,99.90
2018-01-04T13:30:27.532Z,99.90
2018-01-04T13:32:55.870Z,99.90
2018-01-04T13:35:24.987Z,99.90
2018-01-04T13:37:53.286Z,99.90
2018-01-04T13:40:21.517Z,99.90
2018-01-04T13:42:50.547Z,99.90
2018-01-04T13:45:18.794Z,99.90
2018-01-04T13:47:47.835Z,99.90
2018-01-04T13:50:16.107Z,99.90
2018-01-04T13:52:44.365Z,99.90
2018-01-04T13:55:13.374Z,99.90
2018-01-04T13:57:41.954Z,99.90
2018-01-04T14:00:10.260Z,99.90
2018-01-04T14:02:39.330Z,99.90
2018-01-04T14:05:08.478Z,99.90
2018-01-04T14:07:36.726Z,99.90
2018-01-04T14:10:04.978Z,99.90
2018-01-04T14:12:34.037Z,99.90
2018-01-04T14:15:02.300Z,99.90
2018-01-04T14:17:30.602Z,99.90
2018-01-04T14:19:58.904Z,99.90
2018-01-04T14:22:27.146Z,99.90
2018-01-04T14:24:55.406Z,99.90
2018-01-04T14:27:23.667Z,99.90
2018-01-04T14:29:52.686Z,99.90
2018-01-04T14:32:20.918Z,99.90
2018-01-04T14:34:49.979Z,99.90
2018-01-04T14:37:18.258Z,99.90
2018-01-04T14:39:47.130Z,99.90
2018-01-04T14:42:16.718Z,99.90
2018-01-04T14:44:45.047Z,99.90
2018-01-04T14:47:13.445Z,99.90
2018-01-04T14:49:41.703Z,99.90
2018-01-04T14:52:09.943Z,99.90
2018-01-04T14:54:38.981Z,99.90
2018-01-04T14:57:07.222Z,99.90
2018-01-04T14:59:36.226Z,99.90
2018-01-04T15:02:05.255Z,99.90
2018-01-04T15:04:33.506Z,99.90
2018-01-04T15:07:02.570Z,99.90
2018-01-04T15:09:30.803Z,99.90
2018-01-04T15:11:59.054Z,99.90
2018-01-04T15:14:28.082Z,99.90
2018-01-04T15:16:57.078Z,99.90
2018-01-04T15:19:25.378Z,99.90
2018-01-04T15:21:53.638Z,99.90
2018-01-04T15:24:21.920Z,99.90
2018-01-04T15:26:50.239Z,99.90
2018-01-04T15:29:18.467Z,99.90
2018-01-04T15:31:46.735Z,99.90
2018-01-04T15:34:15.762Z,99.90
2018-01-04T15:36:44.037Z,99.90
2018-01-04T15:39:12.682Z,99.90
2018-01-04T15:41:41.810Z,99.90
2018-01-04T15:44:10.265Z,99.90
2018-01-04T15:46:38.858Z,99.90
2018-01-04T15:49:07.144Z,99.90
2018-01-04T15:51:35.415Z,99.90
2018-01-04T15:54:03.655Z,99.90
2018-01-04T15:56:31.947Z,99.90
2018-01-04T15:59:00.203Z,99.90
2018-01-04T16:01:28.466Z,99.90
2018-01-04T16:03:57.482Z,99.90
2018-01-04T16:06:25.756Z,99.90
2018-01-04T16:08:54.791Z,99.90
2018-01-04T16:11:23.038Z,99.90
2018-01-04T16:13:51.300Z,99.90
2018-01-04T16:16:20.456Z,99.90
2018-01-04T16:18:48.739Z,99.90
2018-01-04T16:21:17.025Z,99.90
2018-01-04T16:23:45.297Z,99.90
2018-01-04T16:26:13.560Z,99.90
2018-01-04T16:28:41.867Z,99.90
2018-01-04T16:31:10.160Z,99.90
2018-01-04T16:33:38.423Z,99.90
2018-01-04T16:36:06.710Z,99.90
2018-01-04T16:38:34.942Z,99.90
2018-01-04T16:41:04.459Z,99.90
2018-01-04T16:43:32.751Z,99.90
2018-01-04T16:46:01.001Z,99.90
2018-01-04T16:48:30.046Z,99.90
2018-01-04T16:50:58.294Z,99.90
2018-01-04T16:53:27.328Z,99.90
2018-01-04T16:55:55.602Z,99.90
2018-01-04T16:58:23.870Z,99.90
2018-01-04T17:00:52.113Z,99.90
2018-01-04T17:03:21.881Z,99.90
2018-01-04T17:05:50.130Z,99.90
2018-01-04T17:08:19.166Z,99.90
2018-01-04T17:10:47.428Z,99.90
2018-01-04T17:13:15.700Z,99.90
2018-01-04T17:15:44.005Z,99.90
2018-01-04T17:18:12.318Z,99.90
2018-01-04T17:20:40.586Z,99.90
2018-01-04T17:23:08.836Z,99.90
2018-01-04T17:25:37.101Z,99.90
2018-01-04T17:28:05.477Z,99.90
2018-01-04T17:30:33.760Z,99.90
2018-01-04T17:33:02.028Z,99.90
2018-01-04T17:35:31.072Z,99.90
2018-01-04T17:37:59.350Z,99.90
2018-01-04T17:40:27.605Z,99.90
2018-01-04T17:42:55.868Z,99.90
2018-01-04T17:45:24.913Z,99.90
2018-01-04T17:47:53.240Z,99.90
2018-01-04T17:50:21.490Z,99.90
2018-01-04T17:52:49.766Z,99.90
2018-01-04T17:55:18.035Z,99.90
2018-01-04T17:57:46.306Z,99.90
2018-01-04T18:00:14.576Z,99.90
2018-01-04T18:02:42.837Z,99.90
2018-01-04T18:05:11.893Z,99.90
2018-01-04T18:07:40.218Z,99.90
2018-01-04T18:10:08.462Z,99.90
2018-01-04T18:12:38.223Z,99.90
2018-01-04T18:15:06.496Z,99.90
2018-01-04T18:17:35.512Z,99.90
2018-01-04T18:20:03.892Z,99.90
2018-01-04T18:22:32.214Z,99.90
2018-01-04T18:25:00.480Z,99.90
2018-01-04T18:27:28.748Z,99.90
2018-01-04T18:29:57.074Z,99.90
2018-01-04T18:32:25.338Z,99.90
2018-01-04T18:34:53.579Z,99.90
2018-01-04T18:37:21.854Z,99.90
2018-01-04T18:39:50.103Z,99.90
2018-01-04T18:42:18.375Z,99.90
2018-01-04T18:44:46.631Z,99.90
2018-01-04T18:47:14.904Z,99.90
2018-01-04T18:49:43.166Z,99.90
2018-01-04T18:52:11.462Z,99.90
2018-01-04T18:54:39.735Z,99.90
2018-01-04T18:57:09.693Z,99.90
2018-01-04T18:59:37.965Z,99.90
2018-01-04T19:02:06.243Z,99.90
2018-01-04T19:04:34.504Z,99.90
2018-01-04T19:07:02.772Z,99.90
2018-01-04T19:09:31.062Z,99.90
2018-01-04T19:11:59.352Z,99.90
2018-01-04T19:14:27.606Z,99.90
2018-01-04T19:16:55.872Z,99.90
2018-01-04T19:19:24.886Z,99.90
2018-01-04T19:21:53.164Z,99.90
2018-01-04T19:24:26.357Z,99.90
2018-01-04T19:27:00.293Z,99.90
2018-01-04T19:29:28.554Z,99.90
2018-01-04T19:31:56.865Z,99.90
2018-01-04T19:34:25.135Z,99.90
2018-01-04T19:36:54.134Z,99.90
2018-01-04T19:39:22.407Z,99.90
2018-01-04T19:41:50.856Z,99.90
2018-01-04T19:44:22.046Z,99.90
2018-01-04T19:46:50.308Z,99.90
2018-01-04T19:49:19.433Z,99.90
2018-01-04T19:51:47.698Z,99.90
2018-01-04T19:54:16.942Z,99.90
2018-01-04T19:56:45.353Z,99.90
2018-01-04T19:59:14.403Z,99.90
2018-01-04T20:01:42.654Z,99.90
2018-01-04T20:04:11.779Z,99.90
2018-01-04T20:06:40.018Z,99.90
2018-01-04T20:09:08.372Z,99.90
2018-01-04T20:11:36.635Z,99.90
2018-01-04T20:14:04.971Z,99.90
2018-01-04T20:16:33.164Z,99.90
2018-01-04T20:19:02.198Z,99.90
2018-01-04T20:21:30.442Z,99.90
2018-01-04T20:23:58.774Z,99.90
2018-01-04T20:26:27.027Z,99.90
2018-01-04T20:28:55.294Z,99.90
2018-01-04T20:31:23.546Z,99.90
2018-01-04T20:33:51.822Z,99.90
2018-01-04T20:36:20.078Z,99.90
2018-01-04T20:38:48.645Z,99.90
2018-01-04T20:41:16.903Z,99.90
2018-01-04T20:43:45.200Z,99.80
2018-01-04T20:46:13.450Z,99.10
2018-01-04T20:48:42.492Z,97.90
2018-01-04T20:51:10.777Z,97.90
2018-01-04T20:53:39.093Z,98.60
2018-01-04T20:56:07.338Z,97.80
2018-01-04T20:58:35.613Z,97.10
2018-01-04T21:01:03.904Z,98.00
2018-01-04T21:03:32.202Z,96.40
2018-01-04T21:06:00.433Z,97.60
2018-01-04T21:08:28.690Z,96.40
2018-01-04T21:10:57.730Z,96.70
2018-01-04T21:13:26.033Z,96.70
2018-01-04T21:15:54.302Z,97.00
2018-01-04T21:18:22.577Z,96.80
2018-01-04T21:20:50.876Z,96.60
2018-01-04T21:23:19.120Z,99.90
2018-01-04T21:25:47.431Z,99.90
2018-01-04T21:28:15.690Z,99.90
2018-01-04T21:30:43.974Z,99.90
2018-01-04T21:33:12.233Z,99.90
2018-01-04T21:35:41.261Z,99.90
2018-01-04T21:38:09.554Z,99.90
2018-01-04T21:40:37.821Z,99.90
2018-01-04T21:43:06.074Z,99.90
2018-01-04T21:45:35.111Z,99.90
2018-01-04T21:48:03.364Z,99.90
2018-01-04T21:50:31.632Z,99.90
2018-01-04T21:53:00.662Z,99.70
2018-01-04T21:55:28.953Z,99.70
2018-01-04T21:57:57.321Z,95.70
2018-01-04T22:00:25.560Z,95.30
2018-01-04T22:02:53.826Z,93.90
2018-01-04T22:05:22.089Z,94.10
2018-01-04T22:07:50.355Z,94.50
2018-01-04T22:10:18.616Z,94.80
2018-01-04T22:12:46.885Z,94.70
2018-01-04T22:15:15.138Z,95.90
2018-01-04T22:17:43.424Z,96.60
2018-01-04T22:20:11.673Z,95.40
2018-01-04T22:22:39.955Z,95.40
2018-01-04T22:25:08.190Z,95.10
2018-01-04T22:27:37.222Z,95.00
2018-01-04T22:30:05.471Z,95.00
2018-01-04T22:32:34.507Z,94.50
2018-01-04T22:35:02.759Z,94.50
2018-01-04T22:37:31.027Z,93.40
2018-01-04T22:40:00.060Z,94.10
2018-01-04T22:42:28.332Z,94.10
2018-01-04T22:44:56.593Z,93.50
2018-01-04T22:47:25.637Z,92.20
2018-01-04T22:49:53.887Z,92.20
2018-01-04T22:52:22.139Z,92.50
2018-01-04T22:54:51.213Z,91.80
2018-01-04T22:57:19.465Z,91.80
2018-01-04T22:59:47.715Z,91.70
2018-01-04T23:02:16.746Z,91.20
2018-01-04T23:04:45.002Z,91.20
2018-01-04T23:07:13.255Z,91.50
2018-01-04T23:09:41.524Z,91.60
2018-01-04T23:12:09.768Z,92.30
2018-01-04T23:14:38.050Z,91.70
2018-01-04T23:17:06.307Z,91.40
2018-01-04T23:19:34.581Z,91.60
2018-01-04T23:22:03.594Z,91.90
2018-01-04T23:24:31.909Z,91.90
2018-01-04T23:27:00.131Z,91.90
2018-01-04T23:29:29.166Z,92.20
2018-01-04T23:31:57.410Z,92.10
2018-01-04T23:34:26.438Z,92.70
2018-01-04T23:36:54.699Z,92.70
2018-01-04T23:39:23.716Z,92.70
2018-01-04T23:41:51.962Z,92.70
2018-01-04T23:44:20.218Z,92.80
2018-01-04T23:46:48.458Z,92.80
2018-01-04T23:49:16.724Z,93.00
2018-01-04T23:51:45.742Z,93.40
2018-01-04T23:54:14.042Z,93.40
2018-01-04T23:56:42.284Z,93.70
2018-01-04T23:59:11.393Z,94.30
